createdAt,value
2018-12-31T00:01:10.142Z,61.73
2018-12-31T00:03:37.670Z,67.20
2018-12-31T00:06:05.159Z,67.77
2018-12-31T00:08:32.686Z,66.70
2018-12-31T00:11:00.249Z,63.13
2018-12-31T00:13:27.707Z,70.00
2018-12-31T00:15:55.156Z,62.90
2018-12-31T00:18:22.673Z,68.30
2018-12-31T00:20:50.114Z,66.73
2018-12-31T00:23:17.572Z,65.90
2018-12-31T00:25:45.088Z,62.50
2018-12-31T00:28:12.606Z,63.03
2018-12-31T00:30:40.035Z,71.90
2018-12-31T00:33:07.410Z,68.93
2018-12-31T00:35:34.843Z,68.57
2018-12-31T00:38:02.300Z,67.53
2018-12-31T00:40:29.690Z,62.27
2018-12-31T00:42:59.192Z,61.23
2018-12-31T00:45:26.483Z,68.90
2018-12-31T00:47:53.907Z,75.33
2018-12-31T00:50:21.349Z,66.43
2018-12-31T00:52:48.721Z,78.80
2018-12-31T00:55:16.156Z,71.83
2018-12-31T00:57:43.597Z,67.00
2018-12-31T01:00:11.101Z,68.80
2018-12-31T01:02:38.562Z,74.57
2018-12-31T01:05:06.235Z,67.50
2018-12-31T01:07:33.692Z,75.87
2018-12-31T01:10:01.059Z,71.90
2018-12-31T01:12:28.728Z,65.87
2018-12-31T01:14:56.175Z,74.27
2018-12-31T01:17:23.634Z,76.67
2018-12-31T01:19:51.018Z,78.43
2018-12-31T01:22:18.462Z,68.73
2018-12-31T01:24:45.909Z,70.37
2018-12-31T01:27:13.338Z,73.50
2018-12-31T01:29:40.808Z,72.30
2018-12-31T01:32:08.181Z,53.03
2018-12-31T01:34:35.720Z,57.80
2018-12-31T01:37:03.196Z,63.23
2018-12-31T01:39:30.658Z,63.70
2018-12-31T01:41:58.130Z,64.50
2018-12-31T01:44:25.579Z,59.93
2018-12-31T01:46:53.050Z,56.97
2018-12-31T01:49:20.481Z,60.87
2018-12-31T01:51:47.888Z,63.33
2018-12-31T01:54:15.343Z,58.63
2018-12-31T01:56:42.827Z,61.73
2018-12-31T01:59:10.266Z,44.27
2018-12-31T02:01:37.731Z,62.63
2018-12-31T02:04:05.124Z,63.27
2018-12-31T02:06:32.645Z,58.30
2018-12-31T02:09:00.112Z,57.47
2018-12-31T02:11:27.550Z,62.43
2018-12-31T02:13:55.050Z,68.50
2018-12-31T02:16:22.518Z,67.27
2018-12-31T02:18:49.957Z,72.07
2018-12-31T02:21:17.403Z,68.20
2018-12-31T02:23:44.825Z,63.17
2018-12-31T02:26:13.685Z,64.47
2018-12-31T02:28:41.642Z,52.43
2018-12-31T02:31:09.140Z,60.07
2018-12-31T02:33:36.597Z,53.50
2018-12-31T02:36:04.065Z,51.97
2018-12-31T02:38:31.667Z,49.87
2018-12-31T02:40:59.131Z,54.20
2018-12-31T02:43:26.638Z,52.23
2018-12-31T02:45:54.013Z,51.60
2018-12-31T02:48:21.460Z,58.83
2018-12-31T02:50:48.916Z,55.20
2018-12-31T02:53:16.398Z,46.47
2018-12-31T02:55:43.859Z,46.20
2018-12-31T02:58:11.234Z,48.13
2018-12-31T03:00:38.695Z,50.00
2018-12-31T03:03:06.127Z,50.13
2018-12-31T03:05:33.571Z,48.20
2018-12-31T03:08:00.939Z,48.97
2018-12-31T03:10:28.397Z,46.17
2018-12-31T03:12:55.851Z,47.87
2018-12-31T03:15:23.472Z,55.50
2018-12-31T03:17:50.843Z,52.37
2018-12-31T03:20:18.312Z,51.57
2018-12-31T03:22:45.751Z,52.37
2018-12-31T03:25:13.172Z,48.10
2018-12-31T03:27:40.624Z,54.37
2018-12-31T03:30:08.296Z,52.03
2018-12-31T03:32:35.761Z,50.30
2018-12-31T03:35:03.486Z,51.93
2018-12-31T03:37:30.849Z,48.60
2018-12-31T03:39:58.438Z,49.10
2018-12-31T03:42:25.965Z,49.87
2018-12-31T03:44:53.466Z,49.37
2018-12-31T03:47:20.841Z,54.30
2018-12-31T03:49:48.287Z,51.37
2018-12-31T03:52:15.761Z,52.20
2018-12-31T03:54:43.160Z,50.90
2018-12-31T03:57:10.644Z,53.23
2018-12-31T03:59:38.104Z,49.03
2018-12-31T04:02:05.490Z,52.57
2018-12-31T04:04:33.050Z,57.17
2018-12-31T04:07:00.505Z,49.00
2018-12-31T04:09:27.928Z,57.03
2018-12-31T04:11:55.378Z,57.17
2018-12-31T04:14:22.824Z,55.63
2018-12-31T04:16:50.218Z,55.87
2018-12-31T04:19:17.662Z,53.00
2018-12-31T04:21:45.131Z,56.37
2018-12-31T04:24:12.524Z,54.90
2018-12-31T04:26:39.960Z,51.67
2018-12-31T04:29:07.417Z,55.10
2018-12-31T04:31:47.526Z,56.87
2018-12-31T04:34:15.084Z,52.37
2018-12-31T04:36:42.525Z,59.73
2018-12-31T04:39:09.988Z,52.80
2018-12-31T04:41:37.567Z,57.13
2018-12-31T04:44:05.071Z,53.67
2018-12-31T04:46:32.517Z,53.00
2018-12-31T04:49:00.040Z,55.93
2018-12-31T04:51:27.427Z,53.27
2018-12-31T04:53:54.863Z,55.97
2018-12-31T04:56:22.342Z,52.03
2018-12-31T04:58:49.900Z,51.33
2018-12-31T05:01:17.319Z,54.90
2018-12-31T05:03:44.769Z,54.57
2018-12-31T05:06:12.233Z,55.50
2018-12-31T05:08:39.713Z,49.23
2018-12-31T05:11:07.147Z,50.50
2018-12-31T05:13:34.656Z,48.53
2018-12-31T05:16:02.099Z,50.20
2018-12-31T05:18:29.550Z,38.87
2018-12-31T05:20:56.956Z,38.40
2018-12-31T05:23:24.405Z,40.23
2018-12-31T05:25:51.883Z,36.83
2018-12-31T05:28:19.367Z,38.37
2018-12-31T05:30:46.806Z,34.20
2018-12-31T05:33:14.334Z,32.33
2018-12-31T05:35:41.962Z,35.77
2018-12-31T05:38:09.473Z,39.67
2018-12-31T05:40:36.937Z,36.80
2018-12-31T05:43:23.874Z,42.93
2018-12-31T05:45:51.399Z,40.20
2018-12-31T05:48:18.797Z,41.20
2018-12-31T05:50:46.269Z,39.93
2018-12-31T05:53:13.708Z,40.43
2018-12-31T05:55:41.144Z,47.13
2018-12-31T05:58:08.602Z,42.60
2018-12-31T06:00:36.283Z,39.03
2018-12-31T06:03:03.732Z,41.40
2018-12-31T06:05:31.215Z,38.60
2018-12-31T06:07:58.575Z,39.67
2018-12-31T06:10:26.084Z,38.10
2018-12-31T06:12:53.554Z,37.37
2018-12-31T06:15:20.994Z,38.93
2018-12-31T06:17:48.570Z,37.30
2018-12-31T06:20:16.115Z,38.13
2018-12-31T06:22:43.488Z,38.97
2018-12-31T06:25:11.540Z,42.40
2018-12-31T06:27:38.996Z,50.17
2018-12-31T06:30:06.499Z,59.13
2018-12-31T06:32:33.926Z,47.17
2018-12-31T06:35:01.441Z,45.97
2018-12-31T06:37:29.047Z,46.87
2018-12-31T06:39:56.457Z,45.20
2018-12-31T06:42:23.914Z,49.40
2018-12-31T06:44:51.427Z,44.23
2018-12-31T06:47:18.797Z,56.83
2018-12-31T06:49:46.294Z,54.40
2018-12-31T06:52:13.736Z,49.40
2018-12-31T06:54:41.133Z,52.50
2018-12-31T06:57:08.589Z,56.53
2018-12-31T06:59:36.060Z,69.47
2018-12-31T07:02:03.649Z,81.77
2018-12-31T07:04:31.475Z,82.70
2018-12-31T07:06:58.929Z,75.30
2018-12-31T07:09:26.439Z,72.53
2018-12-31T07:11:53.915Z,65.57
2018-12-31T07:14:21.511Z,65.57
2018-12-31T07:16:48.966Z,59.97
2018-12-31T07:19:16.393Z,64.67
2018-12-31T07:21:43.814Z,52.83
2018-12-31T07:24:11.279Z,57.53
2018-12-31T07:26:38.772Z,47.43
2018-12-31T07:29:06.351Z,64.23
2018-12-31T07:31:33.747Z,71.93
2018-12-31T07:34:01.202Z,68.10
2018-12-31T07:36:28.696Z,72.07
2018-12-31T07:38:56.264Z,66.03
2018-12-31T07:41:23.830Z,54.50
2018-12-31T07:43:51.317Z,65.90
2018-12-31T07:46:18.766Z,53.73
2018-12-31T07:48:46.244Z,49.17
2018-12-31T07:51:13.721Z,54.73
2018-12-31T07:53:41.304Z,54.57
2018-12-31T07:56:08.711Z,52.10
2018-12-31T07:58:36.160Z,45.90
2018-12-31T08:01:04.128Z,53.00
2018-12-31T08:03:31.541Z,68.93
2018-12-31T08:05:59.203Z,70.43
2018-12-31T08:08:26.749Z,62.47
2018-12-31T08:10:54.612Z,56.63
2018-12-31T08:13:23.539Z,57.10
2018-12-31T08:15:51.144Z,65.30
2018-12-31T08:18:18.632Z,65.63
2018-12-31T08:20:46.349Z,70.87
2018-12-31T08:23:13.861Z,61.87
2018-12-31T08:25:41.312Z,66.47
2018-12-31T08:28:08.836Z,55.03
2018-12-31T08:30:36.369Z,49.43
2018-12-31T08:33:03.887Z,76.40
2018-12-31T08:35:31.393Z,60.50
2018-12-31T08:37:58.758Z,58.50
2018-12-31T08:40:26.342Z,54.63
2018-12-31T08:42:53.866Z,53.63
2018-12-31T08:45:21.348Z,56.37
2018-12-31T08:47:48.872Z,50.30
2018-12-31T08:50:16.349Z,47.77
2018-12-31T08:52:43.923Z,50.50
2018-12-31T08:55:11.397Z,47.93
2018-12-31T08:57:38.864Z,48.97
2018-12-31T09:00:07.386Z,49.40
2018-12-31T09:02:34.875Z,51.00
2018-12-31T09:05:03.022Z,55.40
2018-12-31T09:07:30.510Z,57.17
2018-12-31T09:09:58.101Z,57.93
2018-12-31T09:12:26.025Z,56.67
2018-12-31T09:14:53.632Z,56.53
2018-12-31T09:17:21.156Z,61.07
2018-12-31T09:19:48.560Z,65.43
2018-12-31T09:22:16.066Z,63.07
2018-12-31T09:24:44.674Z,59.60
2018-12-31T09:27:13.078Z,60.43
2018-12-31T09:29:40.517Z,58.00
2018-12-31T09:32:07.948Z,63.80
2018-12-31T09:34:35.431Z,61.73
2018-12-31T09:37:11.680Z,60.60
2018-12-31T09:39:39.128Z,58.27
2018-12-31T09:42:06.771Z,62.00
2018-12-31T09:44:34.248Z,58.30
2018-12-31T09:47:01.700Z,55.47
2018-12-31T09:49:29.080Z,63.33
2018-12-31T09:51:56.592Z,60.77
2018-12-31T09:54:24.065Z,58.17
2018-12-31T09:56:51.492Z,60.50
2018-12-31T09:59:18.970Z,52.80
2018-12-31T10:01:46.832Z,54.43
2018-12-31T10:04:14.314Z,52.10
2018-12-31T10:06:41.901Z,46.63
2018-12-31T10:09:09.359Z,52.50
2018-12-31T10:11:36.903Z,55.80
2018-12-31T10:14:04.419Z,53.17
2018-12-31T10:16:31.827Z,52.17
2018-12-31T10:19:00.412Z,49.50
2018-12-31T10:21:27.833Z,51.20
2018-12-31T10:23:55.254Z,52.90
2018-12-31T10:26:22.714Z,53.40
2018-12-31T10:28:50.283Z,47.30
2018-12-31T10:31:17.731Z,47.20
2018-12-31T10:33:45.189Z,47.30
2018-12-31T10:36:12.648Z,47.77
2018-12-31T10:38:40.062Z,49.90
2018-12-31T10:41:07.525Z,47.17
2018-12-31T10:43:35.050Z,50.00
2018-12-31T10:46:02.473Z,49.07
2018-12-31T10:48:29.953Z,43.03
2018-12-31T10:50:57.406Z,40.67
2018-12-31T10:53:24.875Z,46.87
2018-12-31T10:55:52.458Z,45.43
2018-12-31T10:58:19.943Z,40.10
2018-12-31T11:00:47.385Z,44.23
2018-12-31T11:03:14.852Z,45.70
2018-12-31T11:05:42.273Z,49.57
2018-12-31T11:08:10.609Z,47.00
2018-12-31T11:10:39.031Z,47.03
2018-12-31T11:13:06.512Z,41.83
2018-12-31T11:15:33.956Z,42.33
2018-12-31T11:18:01.413Z,49.17
2018-12-31T11:20:28.852Z,47.87
2018-12-31T11:22:56.468Z,42.47
2018-12-31T11:25:24.011Z,43.20
2018-12-31T11:27:51.487Z,39.13
2018-12-31T11:30:18.943Z,39.90
2018-12-31T11:32:46.391Z,40.60
2018-12-31T11:35:13.802Z,46.23
2018-12-31T11:37:41.244Z,40.27
2018-12-31T11:40:08.887Z,42.20
2018-12-31T11:45:23.411Z,37.03
2018-12-31T11:47:50.873Z,38.90
2018-12-31T11:50:18.540Z,39.90
2018-12-31T11:52:46.184Z,36.40
2018-12-31T11:55:13.797Z,35.93
2018-12-31T11:57:41.324Z,33.27
2018-12-31T12:03:02.352Z,37.47
2018-12-31T12:05:30.275Z,29.33
2018-12-31T12:07:58.125Z,29.93
2018-12-31T12:10:26.598Z,32.17
2018-12-31T12:12:58.177Z,32.37
2018-12-31T12:15:26.727Z,32.60
2018-12-31T12:17:54.596Z,32.43
2018-12-31T12:20:22.970Z,28.13
2018-12-31T12:22:52.964Z,24.17
2018-12-31T12:25:23.271Z,26.83
2018-12-31T12:27:51.361Z,26.20
2018-12-31T12:30:19.416Z,30.80
2018-12-31T12:32:50.295Z,24.33
2018-12-31T12:35:18.833Z,25.77
2018-12-31T12:37:48.645Z,23.97
2018-12-31T12:40:16.961Z,24.83
2018-12-31T12:42:45.095Z,25.60
2018-12-31T12:45:17.660Z,26.37
2018-12-31T12:47:46.818Z,29.70
2018-12-31T12:50:14.986Z,25.50
2018-12-31T12:52:44.473Z,27.53
2018-12-31T12:55:14.409Z,24.70
2018-12-31T12:57:44.067Z,28.73
2018-12-31T13:00:25.084Z,21.67
2018-12-31T13:03:02.687Z,24.10
2018-12-31T13:05:35.900Z,25.53
2018-12-31T13:08:03.840Z,24.47
2018-12-31T13:10:35.445Z,29.07
2018-12-31T13:13:07.951Z,34.10
2018-12-31T13:15:35.932Z,32.30
2018-12-31T13:18:03.386Z,30.47
2018-12-31T13:20:31.122Z,30.63
2018-12-31T13:22:58.583Z,32.50
2018-12-31T13:25:25.986Z,32.50
2018-12-31T13:27:55.399Z,36.93
2018-12-31T13:30:22.857Z,26.53
2018-12-31T13:32:50.247Z,29.97
2018-12-31T13:35:17.699Z,27.57
2018-12-31T13:37:48.026Z,29.40
2018-12-31T13:40:15.735Z,28.17
2018-12-31T13:42:43.220Z,25.70
2018-12-31T13:45:10.666Z,28.90
2018-12-31T13:47:38.129Z,24.93
2018-12-31T13:50:05.807Z,26.30
2018-12-31T13:52:33.592Z,28.43
2018-12-31T13:55:01.520Z,24.10
2018-12-31T13:57:29.371Z,26.27
2018-12-31T13:59:57.506Z,25.73
2018-12-31T14:02:25.029Z,28.00
2018-12-31T14:04:52.482Z,23.63
2018-12-31T14:07:20.014Z,21.83
2018-12-31T14:09:47.549Z,30.67
2018-12-31T14:12:15.046Z,21.33
2018-12-31T14:14:42.573Z,23.97
2018-12-31T14:17:10.325Z,25.60
2018-12-31T14:19:37.701Z,21.97
2018-12-31T14:22:05.265Z,23.13
2018-12-31T14:24:32.891Z,22.20
2018-12-31T14:27:00.912Z,23.90
2018-12-31T14:29:30.112Z,18.80
2018-12-31T14:31:57.840Z,17.43
2018-12-31T14:34:25.991Z,18.47
2018-12-31T14:36:55.865Z,21.67
2018-12-31T14:39:23.935Z,17.97
2018-12-31T14:41:51.720Z,17.80
2018-12-31T14:44:19.174Z,19.70
2018-12-31T14:46:46.652Z,19.63
2018-12-31T14:49:14.160Z,17.67
2018-12-31T14:51:41.653Z,20.77
2018-12-31T14:54:09.162Z,16.03
2018-12-31T14:56:36.542Z,17.77
2018-12-31T14:59:04.002Z,15.20
2018-12-31T15:01:33.406Z,14.73
2018-12-31T15:04:00.813Z,17.70
2018-12-31T15:06:28.317Z,15.77
2018-12-31T15:08:55.866Z,15.30
2018-12-31T15:11:23.310Z,21.10
2018-12-31T15:13:50.792Z,16.43
2018-12-31T15:16:18.258Z,16.80
2018-12-31T15:18:45.864Z,18.03
2018-12-31T15:21:13.330Z,13.87
2018-12-31T15:23:40.982Z,15.90
2018-12-31T15:26:08.622Z,19.33
2018-12-31T15:28:38.064Z,16.53
2018-12-31T15:31:05.437Z,24.37
2018-12-31T15:33:33.058Z,27.43
2018-12-31T15:36:00.635Z,17.40
2018-12-31T15:38:28.135Z,15.53
2018-12-31T15:40:55.518Z,23.80
2018-12-31T15:43:23.090Z,18.50
2018-12-31T15:45:50.623Z,23.60
2018-12-31T15:48:18.185Z,23.30
2018-12-31T15:50:45.583Z,20.10
2018-12-31T15:53:13.184Z,19.70
2018-12-31T15:55:40.630Z,18.47
2018-12-31T15:58:07.991Z,20.90
2018-12-31T16:00:35.469Z,21.17
2018-12-31T16:03:03.032Z,19.90
2018-12-31T16:05:30.572Z,24.17
2018-12-31T16:07:57.966Z,19.27
2018-12-31T16:10:27.324Z,30.27
2018-12-31T16:12:54.783Z,22.80
2018-12-31T16:15:22.254Z,25.00
2018-12-31T16:17:49.669Z,20.30
2018-12-31T16:20:17.139Z,24.83
2018-12-31T16:22:44.651Z,29.67
2018-12-31T16:25:12.100Z,21.43
2018-12-31T16:27:39.562Z,24.00
2018-12-31T16:30:07.733Z,24.93
2018-12-31T16:32:35.130Z,27.30
2018-12-31T16:35:02.598Z,26.30
2018-12-31T16:37:30.170Z,26.30
2018-12-31T16:39:57.604Z,26.20
2018-12-31T16:42:25.045Z,30.80
2018-12-31T16:44:52.654Z,31.70
2018-12-31T16:47:20.128Z,35.43
2018-12-31T16:49:47.642Z,34.67
2018-12-31T16:52:17.040Z,33.13
2018-12-31T16:54:44.602Z,36.27
2018-12-31T16:57:12.055Z,37.87
2018-12-31T16:59:39.510Z,38.53
2018-12-31T17:02:08.163Z,34.13
2018-12-31T17:04:36.987Z,33.10
2018-12-31T17:07:04.514Z,35.40
2018-12-31T17:09:32.019Z,37.37
2018-12-31T17:11:59.533Z,35.83
2018-12-31T17:14:26.914Z,41.67
2018-12-31T17:16:54.405Z,40.63
2018-12-31T17:19:21.876Z,38.23
2018-12-31T17:21:49.494Z,34.20
2018-12-31T17:24:17.111Z,37.93
2018-12-31T17:26:44.599Z,30.23
2018-12-31T17:29:12.089Z,36.10
2018-12-31T17:31:39.627Z,34.40
2018-12-31T17:34:08.971Z,41.13
2018-12-31T17:36:36.379Z,40.07
2018-12-31T17:39:45.351Z,61.00
2018-12-31T17:42:12.908Z,59.70
2018-12-31T17:44:40.365Z,60.00
2018-12-31T17:47:08.005Z,50.73
2018-12-31T17:49:35.630Z,84.80
2018-12-31T17:52:03.182Z,87.30
2018-12-31T17:54:32.576Z,91.97
2018-12-31T17:57:00.202Z,99.23
2018-12-31T17:59:27.723Z,104.70
2018-12-31T18:01:55.465Z,78.47
2018-12-31T18:04:22.872Z,90.83
2018-12-31T18:06:50.375Z,80.47
2018-12-31T18:09:17.833Z,71.77
2018-12-31T18:11:45.408Z,73.50
2018-12-31T18:14:12.816Z,83.53
2018-12-31T18:16:40.337Z,80.07
2018-12-31T18:19:07.846Z,84.67
2018-12-31T18:21:37.232Z,81.07
2018-12-31T18:24:04.634Z,79.27
2018-12-31T18:26:32.102Z,74.43
2018-12-31T18:28:59.568Z,76.53
2018-12-31T18:31:26.991Z,80.07
2018-12-31T18:33:54.466Z,77.80
2018-12-31T18:36:21.920Z,75.07
2018-12-31T18:38:49.400Z,63.10
2018-12-31T18:41:16.822Z,47.67
2018-12-31T18:43:44.259Z,56.53
2018-12-31T18:46:11.753Z,55.40
2018-12-31T18:48:39.574Z,58.97
2018-12-31T18:51:06.970Z,46.37
2018-12-31T18:53:34.414Z,46.60
2018-12-31T18:56:01.878Z,42.17
2018-12-31T18:58:29.326Z,44.57
2018-12-31T19:00:56.813Z,47.17
2018-12-31T19:03:24.265Z,46.70
2018-12-31T19:05:51.664Z,47.13
2018-12-31T19:08:19.123Z,48.50
2018-12-31T19:10:46.780Z,59.17
2018-12-31T19:13:14.249Z,62.67
2018-12-31T19:15:41.750Z,58.33
2018-12-31T19:18:11.103Z,62.73
2018-12-31T19:20:38.584Z,63.40
2018-12-31T19:23:06.008Z,50.07
2018-12-31T19:25:33.474Z,64.00
2018-12-31T19:28:00.910Z,66.13
2018-12-31T19:30:28.484Z,74.73
2018-12-31T19:32:57.794Z,91.77
2018-12-31T19:35:25.257Z,105.03
2018-12-31T19:37:52.970Z,94.87
2018-12-31T19:40:20.316Z,96.67
2018-12-31T19:42:47.895Z,99.10
2018-12-31T19:45:15.369Z,91.83
2018-12-31T19:47:42.802Z,81.43
2018-12-31T19:50:10.328Z,86.37
2018-12-31T19:52:38.025Z,79.17
2018-12-31T19:55:07.026Z,95.33
2018-12-31T19:57:35.073Z,83.43
2018-12-31T20:00:03.402Z,74.73
2018-12-31T20:02:30.869Z,69.40
2018-12-31T20:04:58.715Z,78.83
2018-12-31T20:07:26.154Z,73.50
2018-12-31T20:09:53.613Z,69.47
2018-12-31T20:12:21.016Z,88.40
2018-12-31T20:14:48.816Z,93.33
2018-12-31T20:17:16.341Z,104.70
2018-12-31T20:19:44.124Z,105.50
2018-12-31T20:22:11.632Z,89.83
2018-12-31T20:24:39.093Z,80.77
2018-12-31T20:27:06.548Z,82.77
2018-12-31T20:29:34.201Z,88.67
2018-12-31T20:32:01.802Z,81.67
2018-12-31T20:34:29.249Z,96.20
2018-12-31T20:36:56.871Z,81.87
2018-12-31T20:39:24.245Z,89.53
2018-12-31T20:41:51.767Z,84.27
2018-12-31T20:44:21.132Z,87.67
2018-12-31T20:46:48.592Z,81.93
2018-12-31T20:49:15.979Z,84.43
2018-12-31T20:51:43.518Z,81.87
2018-12-31T20:54:11.022Z,86.93
2018-12-31T20:56:38.491Z,91.20
2018-12-31T20:59:08.612Z,82.97
2018-12-31T21:01:36.485Z,81.40
2018-12-31T21:04:04.064Z,99.63
2018-12-31T21:06:31.675Z,86.50
2018-12-31T21:08:59.341Z,85.30
2018-12-31T21:11:27.465Z,74.73
2018-12-31T21:13:55.197Z,87.63
2018-12-31T21:16:22.807Z,88.03
2018-12-31T21:18:50.340Z,85.87
2018-12-31T21:21:18.102Z,113.53
2018-12-31T21:23:45.690Z,99.50
2018-12-31T21:26:13.336Z,95.77
2018-12-31T21:28:40.996Z,96.53
2018-12-31T21:31:08.840Z,95.83
2018-12-31T21:33:39.979Z,88.20
2018-12-31T21:36:08.060Z,94.60
2018-12-31T21:38:35.729Z,94.50
2018-12-31T21:41:05.275Z,92.33
2018-12-31T21:43:33.268Z,95.77
2018-12-31T21:46:00.932Z,94.13
2018-12-31T21:48:28.770Z,99.73
2018-12-31T21:50:56.387Z,107.23
2018-12-31T21:53:24.293Z,71.43
2018-12-31T21:55:52.307Z,85.70
2018-12-31T21:58:23.887Z,92.57
2018-12-31T22:00:51.544Z,78.63
2018-12-31T22:03:19.130Z,81.47
2018-12-31T22:05:46.821Z,161.67
2018-12-31T22:08:14.485Z,86.03
2018-12-31T22:10:44.513Z,137.53
2018-12-31T22:13:12.301Z,133.07
2018-12-31T22:15:39.923Z,132.37
2018-12-31T22:18:07.667Z,354.27
2018-12-31T22:20:35.613Z,149.80
2018-12-31T22:23:03.348Z,132.50
2018-12-31T22:25:30.948Z,90.30
2018-12-31T22:27:58.531Z,112.60
2018-12-31T22:30:26.120Z,134.50
2018-12-31T22:32:54.032Z,133.20
2018-12-31T22:35:23.152Z,133.33
2018-12-31T22:37:52.624Z,134.80
2018-12-31T22:40:20.335Z,129.13
2018-12-31T22:42:51.256Z,130.07
2018-12-31T22:45:22.358Z,134.63
2018-12-31T22:47:51.421Z,135.43
2018-12-31T22:50:40.845Z,146.30
2018-12-31T22:53:08.982Z,182.03
2018-12-31T22:55:36.596Z,204.13
2018-12-31T22:58:04.383Z,210.37
2018-12-31T23:00:32.549Z,222.97
2018-12-31T23:03:00.131Z,200.43
2018-12-31T23:05:29.211Z,197.90
2018-12-31T23:07:59.274Z,183.77
2018-12-31T23:10:26.806Z,161.40
2018-12-31T23:12:54.469Z,181.17
2018-12-31T23:15:23.819Z,174.13
2018-12-31T23:17:52.529Z,177.80
2018-12-31T23:20:21.922Z,166.30
2018-12-31T23:22:51.097Z,141.67
2018-12-31T23:25:59.658Z,139.67
2018-12-31T23:31:07.610Z,115.77
2018-12-31T23:33:35.235Z,112.90
2018-12-31T23:36:02.842Z,108.70
2018-12-31T23:38:31.364Z,114.40
2018-12-31T23:40:59.015Z,119.47
2018-12-31T23:43:27.408Z,98.83
2018-12-31T23:45:56.276Z,102.30
2018-12-31T23:48:23.760Z,86.63
2018-12-31T23:50:51.425Z,76.37
2018-12-31T23:53:19.144Z,67.60
2018-12-31T23:55:46.973Z,67.80
2018-12-31T23:58:14.942Z,64.97
